Cytokinetics Inc (NASDAQ:CYTK)

CAPS Rating: 3 out of 5

A biopharmaceutical company, focused on developing small molecule therapeutics for the treatment of cardiovascular diseases and cancer.

Results 1 - 99 of 192 : 1 2 Next »
Top
Pick
Member Name Member
Rating
Start
Date
Call Time
Frame
Start
Price
Stock
Gain
Index
Gain
Score Commentary
OttoBismarck 99.89 3/3/2015 Underperform 5Y $7.87 -9.53% -2.93% +6.60 0 Comment
icewater3 94.03 2/17/2015 Outperform 1Y $8.30 -14.22% -2.17% -12.04 0 Comment
karakartal < 20 2/13/2015 Outperform 5Y $7.86 -9.41% -2.00% -7.42 0 Comment
vrpaul 62.40 1/21/2015 Outperform 5Y $7.26 -1.86% +1.39% -3.25 0 Comment
This player feels very strongly about this pick and has marked it a Top Pick. Top Picks do not affect a player’s score. skyrocket29 61.22 12/26/2014 Outperform 1Y $6.46 +10.22% -1.60% +11.81 0 Comment
dflo 84.76 12/5/2014 Outperform 5Y $4.57 +55.80% -1.25% +57.05 0 Comment
Playa14 < 20 11/28/2014 Outperform 5Y $4.58 +55.46% -1.07% +56.53 0 Comment
cthomas1017 97.33 11/18/2014 Underperform 5Y $4.11 +73.24% +0.41% -72.83 0 Comment
flemishinvestor < 20 11/18/2014 Outperform 3Y $4.21 +69.12% -0.01% +69.13 0 Comment
MacroHedge 93.32 11/7/2014 Outperform 5Y $4.11 +73.24% +1.01% +72.23 0 Comment
hayrettin 70.32 10/13/2014 Outperform 5Y $3.37 +111.28% +8.01% +103.26 0 Comment
ptanabe 81.84 9/9/2014 Outperform 5Y $3.67 +93.87% +2.59% +91.28 1 Comment
GyroDynasty 98.52 7/21/2014 Outperform 5Y $4.25 +67.53% +4.15% +63.38 0 Comment
OKwarrior 37.12 6/6/2014 Outperform 5Y $4.88 +45.90% +5.34% +40.56 1 Comment
ArmyRob 74.54 5/7/2014 Underperform 5Y $4.14 +71.98% +9.47% -62.52 0 Comment
AsianMatter < 20 4/28/2014 Outperform 3W $4.58 +55.46% +9.74% +45.72 0 Comment
portefeuille2 99.79 4/25/2014 Outperform 5Y $4.91 +45.16% +10.02% +35.14 0 Comment
peregrine 99.31 4/25/2014 Outperform 5Y $5.07 +40.43% +10.31% +30.13 0 Comment
portefeuille 99.73 4/16/2014 Outperform 5Y $8.95 -20.45% +10.68% -31.12 0 Comment
TerryFool 74.92 4/15/2014 Outperform 5Y $8.94 -20.36% +12.71% -33.07 1 Comment
TerryHoodSr 79.50 4/15/2014 Outperform 5Y $8.94 -20.36% +12.00% -32.36 1 Comment
msb09 36.80 4/2/2014 Outperform 3M $9.79 -27.27% +8.90% -36.17 0 Comment
IVolStrategy < 20 3/26/2014 Outperform 1Y $9.02 -21.06% +9.75% -30.82 0 Comment
BioForcePicks1 85.64 3/25/2014 Outperform 3M $8.94 -20.36% +10.28% -30.64 0 Comment
Dmaral < 20 2/27/2014 Outperform 5Y $10.31 -30.94% +10.79% -41.73 0 Comment
This player feels very strongly about this pick and has marked it a Top Pick. Top Picks do not affect a player’s score. s2dbaker 92.25 1/10/2014 Outperform 5Y $9.22 -22.78% +11.78% -34.56 1 Comment
flypower 99.36 1/7/2014 Outperform 5Y $7.30 -2.47% +12.11% -14.58 0 Comment
HoosierDoozer < 20 12/23/2013 Outperform 5Y $6.60 +7.88% +12.45% -4.57 0 Comment
grahamfordummies 69.79 8/8/2013 12/4/2013 Outperform 3Y $10.21 -30.26% +20.76% -51.03 1 Comment
cavemantrader 69.22 11/7/2013 Outperform 5Y $6.33 +12.48% +17.31% -4.83 0 Comment
mandynshane < 20 10/8/2013 Outperform NS $6.69 +6.43% +23.09% -16.66 0 Comment
ImFive 28.66 10/7/2013 Outperform 5Y $7.03 +1.28% +22.61% -21.33 0 Comment
ralonsot < 20 10/2/2013 Outperform 5Y $7.38 -3.52% +21.59% -25.12 0 Comment
withoutDoubt 21.77 9/5/2013 Outperform 5Y $8.32 -14.47% +23.57% -38.04 0 Comment
fatmoneyrz 99.18 9/3/2013 Outperform 5Y $7.79 -8.60% +24.19% -32.79 0 Comment
KidJones 98.65 9/3/2013 Outperform 5Y $8.62 -17.40% +24.23% -41.63 0 Comment
Greeniesnack 47.96 8/23/2013 Outperform 5Y $11.11 -35.91% +23.25% -59.16 0 Comment
FoolPep 32.79 8/22/2013 Outperform 3M $11.60 -38.62% +24.48% -63.10 0 Comment
SCOTTRHUETTLCPA 65.09 8/19/2013 Underperform 3W $10.18 -30.06% +24.27% +54.33 0 Comment
rknapton < 20 8/7/2013 Underperform 5Y $10.55 -32.51% +21.33% +53.84 1 Comment
ababrmon 99.08 7/31/2013 Outperform 3M $12.47 -42.90% +21.69% -64.59 0 Comment
efarev 99.58 2/4/2011 7/26/2013 Outperform 5Y $11.16 -36.20% +56.86% -93.06 0 Comment
ronmcpeek < 20 7/19/2013 Outperform 5Y $13.43 -46.98% +21.81% -68.79 0 Comment
TMFEZMagic 41.81 7/15/2013 Underperform 5Y $13.76 -48.26% +22.24% +70.50 0 Comment
batman35 35.16 7/12/2013 Outperform 1Y $13.60 -47.65% +22.55% -70.20 0 Comment
kaletbaldrich27 < 20 7/10/2013 Outperform 1Y $13.30 -46.47% +24.55% -71.02 1 Comment
OriginalBarnacle 73.03 7/1/2013 Underperform 1Y $11.58 -38.51% +27.29% +65.81 0 Comment
Jsams82 < 20 7/1/2013 Outperform 1Y $11.58 -38.51% +27.29% -65.81 0 Comment
JJ68 < 20 6/26/2013 Outperform 5Y $12.10 -41.18% +28.62% -69.80 0 Comment
ytryan 37.43 6/19/2013 Outperform 5Y $11.28 -36.88% +24.66% -61.54 0 Comment
Scraming < 20 6/19/2013 Outperform 3M $11.58 -38.51% +24.01% -62.52 0 Comment
saab93boi < 20 6/18/2013 Underperform 5Y $11.10 -35.86% +23.73% +59.59 0 Comment
shonny2 < 20 5/22/2013 Outperform 5Y $6.90 +3.20% +22.43% -19.23 0 Comment
mcdbenbe 29.41 2/19/2013 Outperform 5Y $6.24 +14.10% +34.72% -20.62 0 Comment
ava5147 < 20 2/19/2013 Outperform 1Y $6.24 +14.10% +34.72% -20.62 0 Comment
montys3 21.75 1/22/2013 Outperform 5Y $5.99 +18.94% +37.91% -18.97 0 Comment
Spyrig < 20 12/17/2012 Outperform 5Y $4.02 +77.11% +44.08% +33.03 0 Comment
mdrnsamurai < 20 12/12/2012 Outperform 5Y $4.29 +65.97% +42.55% +23.42 0 Comment
danculbertson 73.26 10/15/2012 Outperform 3M $4.41 +61.45% +42.88% +18.58 0 Comment
millerto 55.39 8/31/2012 Outperform 1Y $4.58 +55.55% +45.64% +9.90 0 Comment
IdahoInvestor 29.08 8/8/2012 Underperform 5Y $4.00 +77.96% +46.09% -31.88 0 Comment
iadops40 52.97 7/13/2012 Outperform 1Y $4.02 +77.11% +53.35% +23.77 0 Comment
THERULERGOD < 20 7/11/2012 Outperform 5Y $4.26 +67.14% +52.95% +14.19 0 Comment
greentah 60.24 7/9/2012 Outperform 5Y $4.32 +64.81% +51.63% +13.19 0 Comment
HongHue 44.86 7/6/2012 Outperform 1Y $3.90 +82.56% +51.52% +31.04 0 Comment
Harlequinvestor 40.20 6/18/2012 Outperform 1Y $5.16 +37.98% +53.67% -15.68 0 Comment
ConradMike55 < 20 5/10/2012 Outperform 3W $5.58 +27.60% +50.18% -22.58 0 Comment
Arsenal1860 < 20 5/10/2012 Outperform 5Y $5.58 +27.60% +50.18% -22.58 0 Comment
MythQuinn 81.18 5/8/2012 Outperform 3Y $5.52 +28.99% +50.36% -21.37 0 Comment
stainsolution 78.72 5/8/2012 Outperform 5Y $5.70 +24.91% +50.62% -25.71 0 Comment
foolbull12 < 20 5/8/2012 Outperform 5Y $5.52 +28.99% +50.79% -21.80 0 Comment
RBuskey106 51.72 3/15/2012 Outperform 5Y $7.14 -0.28% +46.03% -46.31 1 Comment
TechSci 23.24 3/6/2012 Outperform 5Y $6.54 +8.87% +52.11% -43.24 0 Comment
mhy729 30.58 2/17/2011 2/13/2012 Outperform 1Y $9.18 -22.42% +53.53% -75.95 0 Comment
drt2202 < 20 12/29/2011 Outperform 5Y $5.94 +19.87% +63.90% -44.04 0 Comment
CaptainVegetable < 20 8/5/2011 Outperform 5Y $7.14 -0.28% +68.82% -69.10 0 Comment
pobeda79 33.83 6/20/2011 Outperform 5Y $6.90 +3.19% +62.11% -58.93 0 Comment
amsteinberg86 < 20 5/31/2011 Outperform 3Y $8.64 -17.59% +52.31% -69.90 0 Comment
codyjr002 98.15 5/27/2011 Outperform 5Y $8.64 -17.59% +53.76% -71.35 0 Comment
Thleter 44.27 5/24/2011 Outperform 1Y $8.10 -12.10% +55.54% -67.64 1 Comment
ag77840 23.56 5/18/2011 Outperform 5Y $8.61 -17.31% +52.98% -70.29 0 Comment
Doggity 76.26 5/17/2011 Outperform 5Y $8.64 -17.59% +54.70% -72.29 0 Comment
Euro247 36.31 5/13/2011 Outperform 5Y $8.79 -19.00% +53.34% -72.33 0 Comment
inouye 52.20 5/3/2011 Outperform 1Y $8.52 -16.43% +51.42% -67.86 0 Comment
NVTreasureHunter 29.01 4/27/2011 Outperform NS $9.00 -20.89% +52.00% -72.88 0 Comment
Squeege1981 53.94 4/18/2011 Outperform 5Y $8.64 -17.59% +57.19% -74.78 0 Comment
reachmygoals1 < 20 4/11/2011 Outperform 3M $8.94 -20.36% +54.34% -74.70 0 Comment
limeonaire 99.08 4/4/2011 Outperform 5Y $9.00 -20.89% +53.84% -74.73 0 Comment
ajhers2 < 20 3/25/2011 Outperform 5Y $8.46 -15.84% +55.70% -71.54 0 Comment
lombardy 29.90 3/22/2011 Outperform 5Y $7.62 -6.56% +58.24% -64.80 0 Comment
binyalazar < 20 3/10/2011 Outperform 5Y $8.99 -20.84% +57.20% -78.03 0 Comment
WorldOnFire 28.54 2/23/2011 Outperform 3W $8.70 -18.16% +55.80% -73.96 0 Comment
HackInvestor < 20 2/22/2011 Outperform 5Y $9.12 -21.93% +54.20% -76.13 0 Comment
cheaply 22.32 2/10/2011 Outperform 1Y $11.16 -36.20% +55.98% -92.18 1 Comment
phineas333 30.58 2/10/2011 Outperform 5Y $11.04 -35.51% +55.98% -91.49 0 Comment
Cjbrat1 29.37 1/10/2011 Outperform 5Y $12.36 -42.39% +62.17% -104.56 0 Comment
atlasbooks 86.42 1/4/2011 Outperform 3M $12.96 -45.06% +61.21% -106.27 0 Comment
FinanceGuy58 62.44 12/20/2010 Outperform 5Y $13.14 -45.81% +64.69% -110.50 0 Comment
Okcfirefighter < 20 12/17/2010 Outperform 5Y $12.72 -44.03% +65.09% -109.11 0 Comment
Results 1 - 99 of 192 : 1 2 Next »

Featured Broker Partners


Advertisement